sensor_id;sensor_type;location;lat;lon;timestamp;P1;durP1;ratioP1;P2;durP2;ratioP2
56736;SDS011;42618;51.226;4.910;2023-02-28T00:02:49;12.98;;;8.02;;
56736;SDS011;42618;51.226;4.910;2023-02-28T00:05:17;14.82;;;8.07;;
56736;SDS011;42618;51.226;4.910;2023-02-28T00:07:44;17.73;;;8.10;;
56736;SDS011;42618;51.226;4.910;2023-02-28T00:10:12;12.65;;;7.50;;
56736;SDS011;42618;51.226;4.910;2023-02-28T00:12:38;11.27;;;7.88;;
56736;SDS011;42618;51.226;4.910;2023-02-28T00:15:06;11.68;;;7.03;;
56736;SDS011;42618;51.226;4.910;2023-02-28T00:17:32;12.82;;;6.68;;
56736;SDS011;42618;51.226;4.910;2023-02-28T00:19:59;11.80;;;6.35;;
56736;SDS011;42618;51.226;4.910;2023-02-28T00:22:39;21.08;;;7.18;;
56736;SDS011;42618;51.226;4.910;2023-02-28T00:25:06;10.20;;;6.82;;
56736;SDS011;42618;51.226;4.910;2023-02-28T00:27:34;10.02;;;6.50;;
56736;SDS011;42618;51.226;4.910;2023-02-28T00:30:03;10.98;;;6.70;;
56736;SDS011;42618;51.226;4.910;2023-02-28T00:32:30;10.50;;;6.38;;
56736;SDS011;42618;51.226;4.910;2023-02-28T00:34:57;11.50;;;5.90;;
56736;SDS011;42618;51.226;4.910;2023-02-28T00:37:23;8.75;;;5.45;;
56736;SDS011;42618;51.226;4.910;2023-02-28T00:39:50;9.65;;;6.30;;
56736;SDS011;42618;51.226;4.910;2023-02-28T00:42:16;9.55;;;6.00;;
56736;SDS011;42618;51.226;4.910;2023-02-28T00:44:43;10.50;;;5.75;;
56736;SDS011;42618;51.226;4.910;2023-02-28T00:47:10;12.55;;;6.22;;
56736;SDS011;42618;51.226;4.910;2023-02-28T00:49:37;11.20;;;6.30;;
56736;SDS011;42618;51.226;4.910;2023-02-28T00:52:03;11.63;;;6.55;;
56736;SDS011;42618;51.226;4.910;2023-02-28T00:54:30;11.55;;;6.22;;
56736;SDS011;42618;51.226;4.910;2023-02-28T00:56:57;11.63;;;6.38;;
56736;SDS011;42618;51.226;4.910;2023-02-28T00:59:24;11.70;;;6.33;;
56736;SDS011;42618;51.226;4.910;2023-02-28T01:01:51;12.77;;;6.10;;
56736;SDS011;42618;51.226;4.910;2023-02-28T01:04:17;10.80;;;6.40;;
56736;SDS011;42618;51.226;4.910;2023-02-28T01:06:44;9.55;;;6.32;;
56736;SDS011;42618;51.226;4.910;2023-02-28T01:09:11;10.85;;;6.07;;
56736;SDS011;42618;51.226;4.910;2023-02-28T01:11:38;10.52;;;6.28;;
56736;SDS011;42618;51.226;4.910;2023-02-28T01:14:05;13.20;;;6.88;;
56736;SDS011;42618;51.226;4.910;2023-02-28T01:16:31;12.15;;;6.65;;
56736;SDS011;42618;51.226;4.910;2023-02-28T01:18:58;11.35;;;5.90;;
56736;SDS011;42618;51.226;4.910;2023-02-28T01:21:25;9.82;;;6.15;;
56736;SDS011;42618;51.226;4.910;2023-02-28T01:23:52;14.00;;;6.38;;
56736;SDS011;42618;51.226;4.910;2023-02-28T01:26:22;10.80;;;6.03;;
56736;SDS011;42618;51.226;4.910;2023-02-28T01:28:49;10.37;;;6.63;;
56736;SDS011;42618;51.226;4.910;2023-02-28T01:33:44;13.95;;;7.30;;
56736;SDS011;42618;51.226;4.910;2023-02-28T01:36:13;14.18;;;8.02;;
56736;SDS011;42618;51.226;4.910;2023-02-28T01:38:40;11.90;;;8.07;;
56736;SDS011;42618;51.226;4.910;2023-02-28T01:41:07;10.93;;;7.57;;
56736;SDS011;42618;51.226;4.910;2023-02-28T01:46:11;12.75;;;7.95;;
56736;SDS011;42618;51.226;4.910;2023-02-28T01:48:40;16.80;;;8.17;;
56736;SDS011;42618;51.226;4.910;2023-02-28T01:51:09;13.60;;;8.00;;
56736;SDS011;42618;51.226;4.910;2023-02-28T01:53:39;10.27;;;7.10;;
56736;SDS011;42618;51.226;4.910;2023-02-28T01:56:07;11.75;;;7.40;;
56736;SDS011;42618;51.226;4.910;2023-02-28T01:58:36;20.40;;;8.05;;
56736;SDS011;42618;51.226;4.910;2023-02-28T02:01:03;12.88;;;8.10;;
56736;SDS011;42618;51.226;4.910;2023-02-28T02:03:32;14.02;;;8.32;;
56736;SDS011;42618;51.226;4.910;2023-02-28T02:05:58;14.32;;;7.97;;
56736;SDS011;42618;51.226;4.910;2023-02-28T02:08:26;14.05;;;8.18;;
56736;SDS011;42618;51.226;4.910;2023-02-28T02:18:43;16.15;;;8.57;;
56736;SDS011;42618;51.226;4.910;2023-02-28T02:21:38;14.10;;;8.27;;
56736;SDS011;42618;51.226;4.910;2023-02-28T02:29:32;12.65;;;7.93;;
56736;SDS011;42618;51.226;4.910;2023-02-28T02:34:56;14.15;;;7.88;;
56736;SDS011;42618;51.226;4.910;2023-02-28T02:45:02;13.68;;;7.85;;
56736;SDS011;42618;51.226;4.910;2023-02-28T02:47:30;13.13;;;7.93;;
56736;SDS011;42618;51.226;4.910;2023-02-28T02:49:59;11.75;;;7.68;;
56736;SDS011;42618;51.226;4.910;2023-02-28T02:52:32;13.13;;;8.23;;
56736;SDS011;42618;51.226;4.910;2023-02-28T02:55:03;13.75;;;7.97;;
56736;SDS011;42618;51.226;4.910;2023-02-28T02:57:32;12.77;;;7.53;;
56736;SDS011;42618;51.226;4.910;2023-02-28T03:00:00;12.18;;;7.65;;
56736;SDS011;42618;51.226;4.910;2023-02-28T03:02:28;13.75;;;7.88;;
56736;SDS011;42618;51.226;4.910;2023-02-28T03:05:01;11.63;;;7.90;;
56736;SDS011;42618;51.226;4.910;2023-02-28T03:07:29;14.20;;;7.68;;
56736;SDS011;42618;51.226;4.910;2023-02-28T03:09:56;12.38;;;8.27;;
56736;SDS011;42618;51.226;4.910;2023-02-28T03:12:26;14.70;;;8.30;;
56736;SDS011;42618;51.226;4.910;2023-02-28T03:15:08;17.75;;;7.57;;
56736;SDS011;42618;51.226;4.910;2023-02-28T03:33:11;14.77;;;8.05;;
56736;SDS011;42618;51.226;4.910;2023-02-28T03:35:48;12.80;;;7.45;;
56736;SDS011;42618;51.226;4.910;2023-02-28T03:40:48;11.80;;;7.40;;
56736;SDS011;42618;51.226;4.910;2023-02-28T03:43:19;12.63;;;7.80;;
56736;SDS011;42618;51.226;4.910;2023-02-28T03:45:48;15.10;;;8.82;;
56736;SDS011;42618;51.226;4.910;2023-02-28T03:48:17;13.95;;;7.85;;
56736;SDS011;42618;51.226;4.910;2023-02-28T03:50:47;14.65;;;8.77;;
56736;SDS011;42618;51.226;4.910;2023-02-28T03:55:43;13.65;;;8.27;;
56736;SDS011;42618;51.226;4.910;2023-02-28T03:58:22;15.32;;;8.52;;
56736;SDS011;42618;51.226;4.910;2023-02-28T04:00:59;13.55;;;8.32;;
56736;SDS011;42618;51.226;4.910;2023-02-28T04:03:35;17.08;;;8.43;;
56736;SDS011;42618;51.226;4.910;2023-02-28T04:08:29;13.50;;;8.38;;
56736;SDS011;42618;51.226;4.910;2023-02-28T04:10:57;17.17;;;8.85;;
56736;SDS011;42618;51.226;4.910;2023-02-28T04:13:26;16.40;;;8.90;;
56736;SDS011;42618;51.226;4.910;2023-02-28T04:15:53;15.90;;;7.95;;
56736;SDS011;42618;51.226;4.910;2023-02-28T04:18:19;14.73;;;8.23;;
56736;SDS011;42618;51.226;4.910;2023-02-28T04:20:46;12.63;;;7.63;;
56736;SDS011;42618;51.226;4.910;2023-02-28T04:23:12;11.60;;;8.05;;
56736;SDS011;42618;51.226;4.910;2023-02-28T04:25:39;13.73;;;7.90;;
56736;SDS011;42618;51.226;4.910;2023-02-28T04:28:06;14.70;;;7.75;;
56736;SDS011;42618;51.226;4.910;2023-02-28T04:30:33;13.80;;;7.53;;
56736;SDS011;42618;51.226;4.910;2023-02-28T04:33:00;12.93;;;6.80;;
56736;SDS011;42618;51.226;4.910;2023-02-28T04:35:26;9.55;;;6.55;;
56736;SDS011;42618;51.226;4.910;2023-02-28T04:37:53;13.73;;;6.65;;
56736;SDS011;42618;51.226;4.910;2023-02-28T04:40:20;11.15;;;6.68;;
56736;SDS011;42618;51.226;4.910;2023-02-28T04:42:46;10.18;;;6.07;;
56736;SDS011;42618;51.226;4.910;2023-02-28T04:45:13;10.32;;;6.00;;
56736;SDS011;42618;51.226;4.910;2023-02-28T04:47:39;12.38;;;6.28;;
56736;SDS011;42618;51.226;4.910;2023-02-28T04:50:06;9.25;;;5.97;;
56736;SDS011;42618;51.226;4.910;2023-02-28T04:52:33;10.40;;;6.73;;
56736;SDS011;42618;51.226;4.910;2023-02-28T04:54:59;15.10;;;6.63;;
56736;SDS011;42618;51.226;4.910;2023-02-28T04:57:26;10.25;;;6.28;;
56736;SDS011;42618;51.226;4.910;2023-02-28T04:59:52;11.82;;;6.45;;
56736;SDS011;42618;51.226;4.910;2023-02-28T05:02:19;10.82;;;6.30;;
56736;SDS011;42618;51.226;4.910;2023-02-28T05:07:13;10.65;;;5.35;;
56736;SDS011;42618;51.226;4.910;2023-02-28T05:09:40;10.57;;;5.93;;
56736;SDS011;42618;51.226;4.910;2023-02-28T05:12:07;11.15;;;5.90;;
56736;SDS011;42618;51.226;4.910;2023-02-28T05:14:34;11.60;;;6.60;;
56736;SDS011;42618;51.226;4.910;2023-02-28T05:17:01;15.00;;;6.70;;
56736;SDS011;42618;51.226;4.910;2023-02-28T05:19:28;13.35;;;6.65;;
56736;SDS011;42618;51.226;4.910;2023-02-28T05:21:55;13.13;;;6.88;;
56736;SDS011;42618;51.226;4.910;2023-02-28T05:24:21;11.65;;;7.20;;
56736;SDS011;42618;51.226;4.910;2023-02-28T05:26:52;11.50;;;6.70;;
56736;SDS011;42618;51.226;4.910;2023-02-28T05:29:19;13.93;;;6.35;;
56736;SDS011;42618;51.226;4.910;2023-02-28T05:31:46;11.88;;;6.05;;
56736;SDS011;42618;51.226;4.910;2023-02-28T05:34:12;9.37;;;6.10;;
56736;SDS011;42618;51.226;4.910;2023-02-28T05:36:42;11.63;;;6.30;;
56736;SDS011;42618;51.226;4.910;2023-02-28T05:39:09;11.30;;;5.90;;
56736;SDS011;42618;51.226;4.910;2023-02-28T05:41:40;14.40;;;5.80;;
56736;SDS011;42618;51.226;4.910;2023-02-28T05:44:06;12.20;;;6.05;;
56736;SDS011;42618;51.226;4.910;2023-02-28T05:46:33;9.38;;;5.93;;
56736;SDS011;42618;51.226;4.910;2023-02-28T05:49:00;10.27;;;5.55;;
56736;SDS011;42618;51.226;4.910;2023-02-28T05:51:27;10.20;;;6.07;;
56736;SDS011;42618;51.226;4.910;2023-02-28T05:53:54;10.55;;;5.97;;
56736;SDS011;42618;51.226;4.910;2023-02-28T05:56:21;11.02;;;5.97;;
56736;SDS011;42618;51.226;4.910;2023-02-28T05:58:47;11.60;;;5.80;;
56736;SDS011;42618;51.226;4.910;2023-02-28T06:03:50;14.18;;;6.03;;
56736;SDS011;42618;51.226;4.910;2023-02-28T06:06:16;11.75;;;5.95;;
56736;SDS011;42618;51.226;4.910;2023-02-28T06:08:43;11.25;;;6.43;;
56736;SDS011;42618;51.226;4.910;2023-02-28T06:11:11;10.68;;;6.70;;
56736;SDS011;42618;51.226;4.910;2023-02-28T06:13:37;13.88;;;6.57;;
56736;SDS011;42618;51.226;4.910;2023-02-28T06:16:04;9.93;;;6.40;;
56736;SDS011;42618;51.226;4.910;2023-02-28T06:18:31;13.85;;;7.50;;
56736;SDS011;42618;51.226;4.910;2023-02-28T06:20:58;13.02;;;7.55;;
56736;SDS011;42618;51.226;4.910;2023-02-28T06:23:24;13.13;;;7.60;;
56736;SDS011;42618;51.226;4.910;2023-02-28T06:25:51;11.60;;;6.85;;
56736;SDS011;42618;51.226;4.910;2023-02-28T06:30:45;10.23;;;5.20;;
56736;SDS011;42618;51.226;4.910;2023-02-28T06:33:12;12.77;;;6.13;;
56736;SDS011;42618;51.226;4.910;2023-02-28T06:35:39;9.38;;;6.00;;
56736;SDS011;42618;51.226;4.910;2023-02-28T06:38:05;10.00;;;5.75;;
56736;SDS011;42618;51.226;4.910;2023-02-28T06:40:32;13.93;;;6.28;;
56736;SDS011;42618;51.226;4.910;2023-02-28T06:43:01;15.70;;;6.13;;
56736;SDS011;42618;51.226;4.910;2023-02-28T06:45:28;10.73;;;6.27;;
56736;SDS011;42618;51.226;4.910;2023-02-28T06:47:55;13.10;;;6.35;;
56736;SDS011;42618;51.226;4.910;2023-02-28T06:50:21;10.45;;;6.13;;
56736;SDS011;42618;51.226;4.910;2023-02-28T06:52:48;9.65;;;6.32;;
56736;SDS011;42618;51.226;4.910;2023-02-28T06:55:14;13.70;;;6.38;;
56736;SDS011;42618;51.226;4.910;2023-02-28T06:57:41;10.40;;;6.05;;
56736;SDS011;42618;51.226;4.910;2023-02-28T07:00:08;13.23;;;7.32;;
56736;SDS011;42618;51.226;4.910;2023-02-28T07:02:35;14.60;;;6.57;;
56736;SDS011;42618;51.226;4.910;2023-02-28T07:05:02;13.98;;;6.38;;
56736;SDS011;42618;51.226;4.910;2023-02-28T07:07:28;14.00;;;6.50;;
56736;SDS011;42618;51.226;4.910;2023-02-28T07:09:55;15.18;;;6.60;;
56736;SDS011;42618;51.226;4.910;2023-02-28T07:12:22;10.57;;;6.25;;
56736;SDS011;42618;51.226;4.910;2023-02-28T07:14:49;10.70;;;6.65;;
56736;SDS011;42618;51.226;4.910;2023-02-28T07:17:15;13.05;;;7.55;;
56736;SDS011;42618;51.226;4.910;2023-02-28T07:19:42;10.95;;;6.95;;
56736;SDS011;42618;51.226;4.910;2023-02-28T07:22:09;10.18;;;6.63;;
56736;SDS011;42618;51.226;4.910;2023-02-28T07:24:35;10.00;;;6.72;;
56736;SDS011;42618;51.226;4.910;2023-02-28T07:27:02;10.07;;;6.05;;
56736;SDS011;42618;51.226;4.910;2023-02-28T07:29:29;12.55;;;6.43;;
56736;SDS011;42618;51.226;4.910;2023-02-28T07:31:55;11.32;;;5.88;;
56736;SDS011;42618;51.226;4.910;2023-02-28T07:34:22;10.73;;;5.95;;
56736;SDS011;42618;51.226;4.910;2023-02-28T07:36:52;9.80;;;6.47;;
56736;SDS011;42618;51.226;4.910;2023-02-28T07:39:20;12.07;;;6.00;;
56736;SDS011;42618;51.226;4.910;2023-02-28T07:41:47;11.48;;;6.05;;
56736;SDS011;42618;51.226;4.910;2023-02-28T07:44:14;8.27;;;5.90;;
56736;SDS011;42618;51.226;4.910;2023-02-28T07:46:41;11.15;;;5.63;;
56736;SDS011;42618;51.226;4.910;2023-02-28T07:49:07;11.07;;;5.85;;
56736;SDS011;42618;51.226;4.910;2023-02-28T07:51:34;9.95;;;5.70;;
56736;SDS011;42618;51.226;4.910;2023-02-28T07:54:01;12.35;;;5.50;;
56736;SDS011;42618;51.226;4.910;2023-02-28T07:56:27;7.90;;;5.00;;
56736;SDS011;42618;51.226;4.910;2023-02-28T07:58:54;7.63;;;5.43;;
56736;SDS011;42618;51.226;4.910;2023-02-28T08:01:21;10.65;;;5.63;;
56736;SDS011;42618;51.226;4.910;2023-02-28T08:03:48;8.15;;;5.35;;
56736;SDS011;42618;51.226;4.910;2023-02-28T08:06:19;9.32;;;4.72;;
56736;SDS011;42618;51.226;4.910;2023-02-28T08:08:46;7.93;;;4.88;;
56736;SDS011;42618;51.226;4.910;2023-02-28T08:13:40;10.93;;;5.05;;
56736;SDS011;42618;51.226;4.910;2023-02-28T08:16:09;4.55;;;3.30;;
56736;SDS011;42618;51.226;4.910;2023-02-28T08:18:35;7.45;;;3.53;;
56736;SDS011;42618;51.226;4.910;2023-02-28T08:21:06;4.30;;;3.17;;
56736;SDS011;42618;51.226;4.910;2023-02-28T08:23:33;6.78;;;3.60;;
56736;SDS011;42618;51.226;4.910;2023-02-28T08:25:59;5.57;;;3.63;;
56736;SDS011;42618;51.226;4.910;2023-02-28T08:28:26;4.90;;;2.92;;
56736;SDS011;42618;51.226;4.910;2023-02-28T08:30:53;3.72;;;2.55;;
56736;SDS011;42618;51.226;4.910;2023-02-28T08:33:20;4.25;;;2.53;;
56736;SDS011;42618;51.226;4.910;2023-02-28T08:35:46;6.72;;;2.60;;
56736;SDS011;42618;51.226;4.910;2023-02-28T08:38:13;4.50;;;2.83;;
56736;SDS011;42618;51.226;4.910;2023-02-28T08:40:40;4.72;;;2.65;;
56736;SDS011;42618;51.226;4.910;2023-02-28T08:43:06;3.28;;;2.13;;
56736;SDS011;42618;51.226;4.910;2023-02-28T08:45:33;5.40;;;2.47;;
56736;SDS011;42618;51.226;4.910;2023-02-28T08:48:00;3.70;;;2.13;;
56736;SDS011;42618;51.226;4.910;2023-02-28T08:50:26;4.70;;;3.10;;
56736;SDS011;42618;51.226;4.910;2023-02-28T08:52:53;3.47;;;1.40;;
56736;SDS011;42618;51.226;4.910;2023-02-28T08:55:20;4.90;;;2.30;;
56736;SDS011;42618;51.226;4.910;2023-02-28T08:57:46;2.30;;;1.20;;
56736;SDS011;42618;51.226;4.910;2023-02-28T09:00:13;3.08;;;1.55;;
56736;SDS011;42618;51.226;4.910;2023-02-28T09:02:40;3.08;;;1.73;;
56736;SDS011;42618;51.226;4.910;2023-02-28T09:05:09;2.58;;;1.75;;
56736;SDS011;42618;51.226;4.910;2023-02-28T09:07:36;3.53;;;1.42;;
56736;SDS011;42618;51.226;4.910;2023-02-28T09:10:03;3.95;;;1.10;;
56736;SDS011;42618;51.226;4.910;2023-02-28T09:12:31;1.98;;;1.15;;
56736;SDS011;42618;51.226;4.910;2023-02-28T09:14:59;1.83;;;1.60;;
56736;SDS011;42618;51.226;4.910;2023-02-28T09:17:25;2.88;;;1.45;;
56736;SDS011;42618;51.226;4.910;2023-02-28T09:19:56;2.80;;;1.13;;
56736;SDS011;42618;51.226;4.910;2023-02-28T09:22:23;1.50;;;1.40;;
56736;SDS011;42618;51.226;4.910;2023-02-28T09:24:50;1.52;;;0.98;;
56736;SDS011;42618;51.226;4.910;2023-02-28T09:27:17;3.58;;;1.67;;
56736;SDS011;42618;51.226;4.910;2023-02-28T09:29:43;2.80;;;1.38;;
56736;SDS011;42618;51.226;4.910;2023-02-28T09:32:10;1.20;;;1.05;;
56736;SDS011;42618;51.226;4.910;2023-02-28T09:34:37;1.65;;;1.05;;
56736;SDS011;42618;51.226;4.910;2023-02-28T09:37:03;2.50;;;1.20;;
56736;SDS011;42618;51.226;4.910;2023-02-28T09:39:30;3.08;;;1.33;;
56736;SDS011;42618;51.226;4.910;2023-02-28T09:41:58;1.42;;;1.25;;
56736;SDS011;42618;51.226;4.910;2023-02-28T09:46:53;0.82;;;0.82;;
56736;SDS011;42618;51.226;4.910;2023-02-28T09:49:23;1.13;;;0.73;;
56736;SDS011;42618;51.226;4.910;2023-02-28T09:54:23;0.75;;;0.75;;
56736;SDS011;42618;51.226;4.910;2023-02-28T09:56:55;1.20;;;0.90;;
56736;SDS011;42618;51.226;4.910;2023-02-28T09:59:32;5.25;;;0.55;;
56736;SDS011;42618;51.226;4.910;2023-02-28T10:09:59;2.15;;;1.13;;
56736;SDS011;42618;51.226;4.910;2023-02-28T10:12:28;2.05;;;0.90;;
56736;SDS011;42618;51.226;4.910;2023-02-28T10:14:56;3.08;;;0.80;;
56736;SDS011;42618;51.226;4.910;2023-02-28T10:17:32;1.25;;;1.00;;
56736;SDS011;42618;51.226;4.910;2023-02-28T10:20:21;1.65;;;0.80;;
56736;SDS011;42618;51.226;4.910;2023-02-28T10:22:59;0.40;;;0.30;;
56736;SDS011;42618;51.226;4.910;2023-02-28T10:25:34;2.15;;;1.30;;
56736;SDS011;42618;51.226;4.910;2023-02-28T10:28:10;1.52;;;0.73;;
56736;SDS011;42618;51.226;4.910;2023-02-28T10:30:40;0.88;;;0.73;;
56736;SDS011;42618;51.226;4.910;2023-02-28T10:33:11;4.35;;;2.15;;
56736;SDS011;42618;51.226;4.910;2023-02-28T10:35:42;3.33;;;2.00;;
56736;SDS011;42618;51.226;4.910;2023-02-28T10:38:12;2.92;;;1.65;;
56736;SDS011;42618;51.226;4.910;2023-02-28T10:40:40;5.90;;;1.92;;
56736;SDS011;42618;51.226;4.910;2023-02-28T10:45:52;1.35;;;0.95;;
56736;SDS011;42618;51.226;4.910;2023-02-28T10:56:36;1.38;;;0.93;;
56736;SDS011;42618;51.226;4.910;2023-02-28T11:01:10;1.58;;;0.75;;
56736;SDS011;42618;51.226;4.910;2023-02-28T11:03:38;1.58;;;0.90;;
56736;SDS011;42618;51.226;4.910;2023-02-28T11:06:12;1.48;;;1.17;;
56736;SDS011;42618;51.226;4.910;2023-02-28T11:08:50;1.55;;;1.00;;
56736;SDS011;42618;51.226;4.910;2023-02-28T11:11:17;1.75;;;0.85;;
56736;SDS011;42618;51.226;4.910;2023-02-28T11:13:44;1.23;;;0.90;;
56736;SDS011;42618;51.226;4.910;2023-02-28T11:18:40;3.40;;;1.48;;
56736;SDS011;42618;51.226;4.910;2023-02-28T11:21:08;4.65;;;2.53;;
56736;SDS011;42618;51.226;4.910;2023-02-28T11:23:36;1.83;;;1.02;;
56736;SDS011;42618;51.226;4.910;2023-02-28T11:26:03;1.08;;;0.98;;
56736;SDS011;42618;51.226;4.910;2023-02-28T11:28:39;1.48;;;0.82;;
56736;SDS011;42618;51.226;4.910;2023-02-28T11:33:41;3.13;;;1.45;;
56736;SDS011;42618;51.226;4.910;2023-02-28T11:36:13;2.85;;;1.13;;
56736;SDS011;42618;51.226;4.910;2023-02-28T11:38:40;1.83;;;1.40;;
56736;SDS011;42618;51.226;4.910;2023-02-28T11:48:48;0.82;;;0.70;;
56736;SDS011;42618;51.226;4.910;2023-02-28T11:51:24;1.10;;;1.00;;
56736;SDS011;42618;51.226;4.910;2023-02-28T11:56:37;2.67;;;1.20;;
56736;SDS011;42618;51.226;4.910;2023-02-28T12:01:34;2.60;;;1.58;;
56736;SDS011;42618;51.226;4.910;2023-02-28T12:04:04;3.70;;;1.38;;
56736;SDS011;42618;51.226;4.910;2023-02-28T12:09:17;2.78;;;1.35;;
56736;SDS011;42618;51.226;4.910;2023-02-28T12:17:16;1.25;;;1.02;;
56736;SDS011;42618;51.226;4.910;2023-02-28T12:19:51;5.45;;;1.20;;
56736;SDS011;42618;51.226;4.910;2023-02-28T12:22:28;3.05;;;1.55;;
56736;SDS011;42618;51.226;4.910;2023-02-28T12:27:30;2.35;;;0.95;;
56736;SDS011;42618;51.226;4.910;2023-02-28T12:32:29;1.00;;;0.90;;
56736;SDS011;42618;51.226;4.910;2023-02-28T12:37:31;1.88;;;1.25;;
56736;SDS011;42618;51.226;4.910;2023-02-28T12:40:01;3.08;;;1.27;;
56736;SDS011;42618;51.226;4.910;2023-02-28T12:42:33;2.63;;;1.70;;
56736;SDS011;42618;51.226;4.910;2023-02-28T12:45:03;5.93;;;3.33;;
56736;SDS011;42618;51.226;4.910;2023-02-28T12:47:31;7.90;;;2.10;;
56736;SDS011;42618;51.226;4.910;2023-02-28T12:49:58;4.40;;;1.98;;
56736;SDS011;42618;51.226;4.910;2023-02-28T12:55:15;1.98;;;1.63;;
56736;SDS011;42618;51.226;4.910;2023-02-28T13:00:34;2.70;;;1.38;;
56736;SDS011;42618;51.226;4.910;2023-02-28T13:05:35;3.97;;;1.63;;
56736;SDS011;42618;51.226;4.910;2023-02-28T13:10:50;2.25;;;1.25;;
56736;SDS011;42618;51.226;4.910;2023-02-28T13:13:24;2.72;;;1.48;;
56736;SDS011;42618;51.226;4.910;2023-02-28T13:16:10;1.55;;;1.30;;
56736;SDS011;42618;51.226;4.910;2023-02-28T13:18:46;2.30;;;1.17;;
56736;SDS011;42618;51.226;4.910;2023-02-28T13:21:23;2.55;;;1.50;;
56736;SDS011;42618;51.226;4.910;2023-02-28T13:28:59;1.60;;;1.10;;
56736;SDS011;42618;51.226;4.910;2023-02-28T13:31:26;3.42;;;1.55;;
56736;SDS011;42618;51.226;4.910;2023-02-28T13:36:26;4.93;;;1.35;;
56736;SDS011;42618;51.226;4.910;2023-02-28T13:39:00;2.17;;;1.70;;
56736;SDS011;42618;51.226;4.910;2023-02-28T13:43:59;1.23;;;1.13;;
56736;SDS011;42618;51.226;4.910;2023-02-28T13:46:26;1.52;;;1.20;;
56736;SDS011;42618;51.226;4.910;2023-02-28T13:48:53;2.83;;;1.70;;
56736;SDS011;42618;51.226;4.910;2023-02-28T13:54:12;2.60;;;1.52;;
56736;SDS011;42618;51.226;4.910;2023-02-28T13:56:45;4.18;;;1.42;;
56736;SDS011;42618;51.226;4.910;2023-02-28T13:59:30;2.00;;;1.80;;
56736;SDS011;42618;51.226;4.910;2023-02-28T14:02:09;2.22;;;1.38;;
56736;SDS011;42618;51.226;4.910;2023-02-28T14:07:25;3.88;;;1.60;;
56736;SDS011;42618;51.226;4.910;2023-02-28T14:10:00;2.85;;;1.70;;
56736;SDS011;42618;51.226;4.910;2023-02-28T14:18:02;2.70;;;1.63;;
56736;SDS011;42618;51.226;4.910;2023-02-28T14:20:31;1.80;;;1.60;;
56736;SDS011;42618;51.226;4.910;2023-02-28T14:23:02;3.75;;;1.80;;
56736;SDS011;42618;51.226;4.910;2023-02-28T14:25:37;2.75;;;2.00;;
56736;SDS011;42618;51.226;4.910;2023-02-28T14:28:21;3.97;;;1.52;;
56736;SDS011;42618;51.226;4.910;2023-02-28T14:30:57;2.67;;;1.77;;
56736;SDS011;42618;51.226;4.910;2023-02-28T14:38:23;3.67;;;1.70;;
56736;SDS011;42618;51.226;4.910;2023-02-28T14:40:52;4.88;;;2.22;;
56736;SDS011;42618;51.226;4.910;2023-02-28T14:43:23;4.97;;;2.70;;
56736;SDS011;42618;51.226;4.910;2023-02-28T14:45:50;2.70;;;2.30;;
56736;SDS011;42618;51.226;4.910;2023-02-28T14:48:17;2.10;;;1.65;;
56736;SDS011;42618;51.226;4.910;2023-02-28T14:50:48;2.95;;;1.70;;
56736;SDS011;42618;51.226;4.910;2023-02-28T14:53:18;1.75;;;1.45;;
56736;SDS011;42618;51.226;4.910;2023-02-28T14:55:45;2.42;;;1.70;;
56736;SDS011;42618;51.226;4.910;2023-02-28T14:58:19;5.13;;;1.90;;
56736;SDS011;42618;51.226;4.910;2023-02-28T15:00:48;3.60;;;1.77;;
56736;SDS011;42618;51.226;4.910;2023-02-28T15:03:19;5.15;;;2.05;;
56736;SDS011;42618;51.226;4.910;2023-02-28T15:05:56;3.15;;;2.13;;
56736;SDS011;42618;51.226;4.910;2023-02-28T15:08:24;7.07;;;4.82;;
56736;SDS011;42618;51.226;4.910;2023-02-28T15:11:33;6.28;;;5.05;;
56736;SDS011;42618;51.226;4.910;2023-02-28T15:13:50;8.75;;;4.55;;
56736;SDS011;42618;51.226;4.910;2023-02-28T15:21:12;2.90;;;2.00;;
56736;SDS011;42618;51.226;4.910;2023-02-28T15:23:40;2.78;;;2.40;;
56736;SDS011;42618;51.226;4.910;2023-02-28T15:26:09;4.05;;;1.90;;
56736;SDS011;42618;51.226;4.910;2023-02-28T15:28:37;5.25;;;1.83;;
56736;SDS011;42618;51.226;4.910;2023-02-28T15:31:04;3.35;;;2.33;;
56736;SDS011;42618;51.226;4.910;2023-02-28T15:33:52;3.10;;;2.22;;
56736;SDS011;42618;51.226;4.910;2023-02-28T15:36:18;15.07;;;4.65;;
56736;SDS011;42618;51.226;4.910;2023-02-28T15:38:50;3.17;;;2.10;;
56736;SDS011;42618;51.226;4.910;2023-02-28T15:41:27;2.53;;;2.33;;
56736;SDS011;42618;51.226;4.910;2023-02-28T15:46:21;5.47;;;3.10;;
56736;SDS011;42618;51.226;4.910;2023-02-28T15:48:54;3.20;;;2.25;;
56736;SDS011;42618;51.226;4.910;2023-02-28T15:51:25;5.45;;;2.53;;
56736;SDS011;42618;51.226;4.910;2023-02-28T15:53:56;3.35;;;2.35;;
56736;SDS011;42618;51.226;4.910;2023-02-28T15:58:50;3.40;;;1.95;;
56736;SDS011;42618;51.226;4.910;2023-02-28T16:01:24;2.33;;;2.13;;
56736;SDS011;42618;51.226;4.910;2023-02-28T16:03:53;2.72;;;2.13;;
56736;SDS011;42618;51.226;4.910;2023-02-28T16:08:52;2.90;;;2.30;;
56736;SDS011;42618;51.226;4.910;2023-02-28T16:11:20;2.30;;;1.90;;
56736;SDS011;42618;51.226;4.910;2023-02-28T16:13:47;3.95;;;2.40;;
56736;SDS011;42618;51.226;4.910;2023-02-28T16:16:22;2.78;;;2.28;;
56736;SDS011;42618;51.226;4.910;2023-02-28T16:18:50;3.60;;;2.80;;
56736;SDS011;42618;51.226;4.910;2023-02-28T16:21:17;6.40;;;2.58;;
56736;SDS011;42618;51.226;4.910;2023-02-28T16:23:44;6.55;;;3.30;;
56736;SDS011;42618;51.226;4.910;2023-02-28T16:26:21;4.60;;;2.70;;
56736;SDS011;42618;51.226;4.910;2023-02-28T16:28:49;4.38;;;2.53;;
56736;SDS011;42618;51.226;4.910;2023-02-28T16:31:15;4.85;;;3.13;;
56736;SDS011;42618;51.226;4.910;2023-02-28T16:33:43;4.28;;;2.92;;
56736;SDS011;42618;51.226;4.910;2023-02-28T16:36:18;4.18;;;2.25;;
56736;SDS011;42618;51.226;4.910;2023-02-28T16:38:45;5.70;;;2.58;;
56736;SDS011;42618;51.226;4.910;2023-02-28T16:41:12;5.07;;;2.60;;
56736;SDS011;42618;51.226;4.910;2023-02-28T16:43:43;5.00;;;3.20;;
56736;SDS011;42618;51.226;4.910;2023-02-28T16:46:10;4.70;;;2.65;;
56736;SDS011;42618;51.226;4.910;2023-02-28T16:48:38;5.20;;;4.00;;
56736;SDS011;42618;51.226;4.910;2023-02-28T16:51:15;8.80;;;3.28;;
56736;SDS011;42618;51.226;4.910;2023-02-28T16:53:43;5.05;;;3.88;;
56736;SDS011;42618;51.226;4.910;2023-02-28T16:56:22;3.38;;;2.47;;
56736;SDS011;42618;51.226;4.910;2023-02-28T16:58:50;26.92;;;9.02;;
56736;SDS011;42618;51.226;4.910;2023-02-28T17:01:17;21.00;;;6.68;;
56736;SDS011;42618;51.226;4.910;2023-02-28T17:03:48;26.15;;;9.07;;
56736;SDS011;42618;51.226;4.910;2023-02-28T17:06:16;7.75;;;4.35;;
56736;SDS011;42618;51.226;4.910;2023-02-28T17:08:44;11.27;;;4.00;;
56736;SDS011;42618;51.226;4.910;2023-02-28T17:11:10;9.98;;;5.18;;
56736;SDS011;42618;51.226;4.910;2023-02-28T17:13:37;10.07;;;4.93;;
56736;SDS011;42618;51.226;4.910;2023-02-28T17:16:03;10.30;;;4.95;;
56736;SDS011;42618;51.226;4.910;2023-02-28T17:18:30;16.00;;;6.95;;
56736;SDS011;42618;51.226;4.910;2023-02-28T17:21:00;11.73;;;6.07;;
56736;SDS011;42618;51.226;4.910;2023-02-28T17:23:27;14.57;;;6.70;;
56736;SDS011;42618;51.226;4.910;2023-02-28T17:25:53;18.38;;;8.20;;
56736;SDS011;42618;51.226;4.910;2023-02-28T17:28:23;15.45;;;6.90;;
56736;SDS011;42618;51.226;4.910;2023-02-28T17:30:50;6.85;;;3.90;;
56736;SDS011;42618;51.226;4.910;2023-02-28T17:33:16;9.95;;;4.25;;
56736;SDS011;42618;51.226;4.910;2023-02-28T17:35:43;18.05;;;8.27;;
56736;SDS011;42618;51.226;4.910;2023-02-28T17:38:17;31.50;;;13.50;;
56736;SDS011;42618;51.226;4.910;2023-02-28T17:40:44;13.95;;;7.07;;
56736;SDS011;42618;51.226;4.910;2023-02-28T17:43:11;14.10;;;6.97;;